Time;durP1;ratioP1;P1;durP2;ratioP2;P2;SDS_P1;SDS_P2;PMS_P1;PMS_P2;Temp;Humidity;BMP_temperature;BMP_pressure;BME280_temperature;BME280_humidity;BME280_pressure;Samples;Min_cycle;Max_cycle;Signal;HPM_P1;HPM_P2
2023/10/18 00:02:16;;;;;;;2.83;1.93;;;;;;;;;;5086173;28;20301;-64
2023/10/18 00:04:45;;;;;;;2.50;2.40;;;;;;;;;;5086077;28;20203;-64
2023/10/18 00:07:13;;;;;;;2.00;2.00;;;;;;;;;;5083954;28;20713;-64
2023/10/18 00:09:45;;;;;;;1.80;1.80;;;;;;;;;;5080802;28;20298;-64
2023/10/18 00:12:16;;;;;;;2.83;1.90;;;;;;;;;;5083296;28;20202;-63
2023/10/18 00:14:43;;;;;;;2.40;2.20;;;;;;;;;;5086084;28;20417;-65
2023/10/18 00:17:10;;;;;;;3.13;2.30;;;;;;;;;;5086338;28;20299;-63
2023/10/18 00:19:38;;;;;;;2.17;1.97;;;;;;;;;;5086296;28;20203;-64
2023/10/18 00:22:07;;;;;;;2.50;2.30;;;;;;;;;;5086524;28;20206;-63
2023/10/18 00:24:34;;;;;;;2.30;2.20;;;;;;;;;;5085523;28;20293;-63
2023/10/18 00:27:03;;;;;;;2.23;2.13;;;;;;;;;;5085920;28;20263;-63
2023/10/18 00:29:30;;;;;;;2.77;2.57;;;;;;;;;;5086215;28;20722;-64
2023/10/18 00:31:59;;;;;;;3.13;2.30;;;;;;;;;;5085833;28;20225;-63
2023/10/18 00:34:26;;;;;;;1.97;1.87;;;;;;;;;;5085899;28;20308;-64
2023/10/18 00:36:54;;;;;;;3.10;1.90;;;;;;;;;;5085652;28;20699;-63
2023/10/18 00:39:27;;;;;;;2.80;2.43;;;;;;;;;;5085300;28;20225;-63
2023/10/18 00:41:54;;;;;;;8.43;2.80;;;;;;;;;;5086483;28;20213;-63
2023/10/18 00:44:22;;;;;;;2.13;2.00;;;;;;;;;;5079444;28;20241;-64
2023/10/18 00:46:49;;;;;;;2.27;2.17;;;;;;;;;;5066097;28;20264;-64
2023/10/18 00:49:17;;;;;;;4.00;2.23;;;;;;;;;;5074921;28;20237;-64
2023/10/18 00:51:44;;;;;;;2.67;2.37;;;;;;;;;;5085608;28;20213;-63
2023/10/18 00:54:12;;;;;;;2.87;2.67;;;;;;;;;;5085628;28;20502;-64
2023/10/18 00:56:43;;;;;;;2.63;2.43;;;;;;;;;;5082206;28;20209;-63
2023/10/18 00:59:18;;;;;;;3.00;1.97;;;;;;;;;;5085955;28;20209;-63
2023/10/18 01:01:46;;;;;;;2.90;2.70;;;;;;;;;;5081411;28;20207;-63
2023/10/18 01:04:13;;;;;;;1.97;1.87;;;;;;;;;;5078777;28;20202;-63
2023/10/18 01:06:43;;;;;;;3.53;2.27;;;;;;;;;;5083167;28;20210;-63
2023/10/18 01:09:15;;;;;;;3.77;2.20;;;;;;;;;;5085756;28;20282;-63
2023/10/18 01:11:46;;;;;;;4.30;2.40;;;;;;;;;;5085471;28;20550;-63
2023/10/18 01:14:17;;;;;;;3.13;2.13;;;;;;;;;;5084359;28;20334;-64
2023/10/18 01:16:45;;;;;;;2.03;1.90;;;;;;;;;;5085239;28;20724;-64
2023/10/18 01:19:15;;;;;;;6.13;2.13;;;;;;;;;;5084933;28;20206;-63
2023/10/18 01:21:45;;;;;;;4.37;3.57;;;;;;;;;;5081803;28;20198;-64
2023/10/18 01:24:15;;;;;;;4.70;3.70;;;;;;;;;;5085033;28;20206;-63
2023/10/18 01:26:43;;;;;;;4.43;3.93;;;;;;;;;;5080131;28;20293;-64
2023/10/18 01:29:10;;;;;;;6.63;4.47;;;;;;;;;;5084885;28;20208;-63
2023/10/18 01:31:43;;;;;;;5.40;4.23;;;;;;;;;;5085447;28;20217;-64
2023/10/18 01:34:11;;;;;;;6.30;4.20;;;;;;;;;;5077831;28;20214;-63
2023/10/18 01:36:39;;;;;;;5.03;4.00;;;;;;;;;;5081715;28;20258;-63
2023/10/18 01:39:18;;;;;;;5.20;3.90;;;;;;;;;;5084699;28;20233;-63
2023/10/18 01:41:46;;;;;;;5.40;3.33;;;;;;;;;;5067180;28;20217;-63
2023/10/18 01:44:18;;;;;;;6.17;3.87;;;;;;;;;;5070828;28;20279;-64
2023/10/18 01:46:46;;;;;;;4.00;3.37;;;;;;;;;;5085003;28;20592;-63
2023/10/18 01:49:16;;;;;;;4.00;3.60;;;;;;;;;;5085095;28;20213;-63
2023/10/18 01:51:45;;;;;;;3.83;3.33;;;;;;;;;;5085278;28;20207;-63
2023/10/18 01:54:15;;;;;;;6.53;3.47;;;;;;;;;;5082513;28;20218;-64
2023/10/18 01:56:43;;;;;;;6.03;4.30;;;;;;;;;;5064593;28;20345;-64
2023/10/18 01:59:13;;;;;;;3.70;3.40;;;;;;;;;;5085022;28;20210;-63
2023/10/18 02:01:40;;;;;;;3.90;3.60;;;;;;;;;;5084057;28;20206;-63
2023/10/18 02:04:11;;;;;;;8.17;4.10;;;;;;;;;;5084911;28;20225;-64
2023/10/18 02:06:38;;;;;;;7.90;4.10;;;;;;;;;;5082753;28;20217;-63
2023/10/18 02:09:10;;;;;;;6.47;4.70;;;;;;;;;;5084728;28;20632;-63
2023/10/18 02:11:37;;;;;;;5.70;3.17;;;;;;;;;;5084962;28;20324;-64
2023/10/18 02:14:05;;;;;;;3.63;2.80;;;;;;;;;;5081873;28;20217;-63
2023/10/18 02:16:33;;;;;;;2.80;2.60;;;;;;;;;;5080810;28;20238;-64
2023/10/18 02:19:00;;;;;;;3.40;2.50;;;;;;;;;;5084327;28;20241;-64
2023/10/18 02:21:27;;;;;;;2.77;2.57;;;;;;;;;;5086794;28;20259;-64
2023/10/18 02:23:55;;;;;;;4.43;2.70;;;;;;;;;;5086367;28;20280;-63
2023/10/18 02:26:31;;;;;;;2.33;2.20;;;;;;;;;;5086624;28;20215;-64
2023/10/18 02:28:59;;;;;;;3.00;1.97;;;;;;;;;;5085759;28;20206;-63
2023/10/18 02:31:28;;;;;;;2.57;2.40;;;;;;;;;;5084402;28;20206;-63
2023/10/18 02:33:57;;;;;;;3.67;2.57;;;;;;;;;;5086802;28;20312;-64
2023/10/18 02:36:32;;;;;;;2.23;2.13;;;;;;;;;;5085217;28;20240;-63
2023/10/18 02:38:59;;;;;;;2.50;2.40;;;;;;;;;;5080967;28;20331;-63
2023/10/18 02:41:27;;;;;;;3.57;2.57;;;;;;;;;;5066835;28;20246;-63
2023/10/18 02:43:55;;;;;;;2.40;2.27;;;;;;;;;;5087192;28;20246;-63
2023/10/18 02:46:23;;;;;;;3.00;2.50;;;;;;;;;;5087012;28;20206;-63
2023/10/18 02:48:52;;;;;;;2.67;2.53;;;;;;;;;;5086525;28;20202;-64
2023/10/18 02:51:22;;;;;;;2.60;2.37;;;;;;;;;;5086405;28;20214;-63
2023/10/18 02:53:49;;;;;;;2.80;2.63;;;;;;;;;;5087104;28;20305;-63
2023/10/18 02:56:20;;;;;;;14.27;2.20;;;;;;;;;;5070475;28;20603;-64
2023/10/18 02:58:47;;;;;;;2.80;2.60;;;;;;;;;;5070125;28;20294;-63
2023/10/18 03:01:18;;;;;;;4.17;2.50;;;;;;;;;;5085971;28;20690;-63
2023/10/18 03:03:46;;;;;;;2.23;2.13;;;;;;;;;;5089800;28;20297;-63
2023/10/18 03:06:14;;;;;;;5.23;2.33;;;;;;;;;;5090406;28;20214;-64
2023/10/18 03:08:44;;;;;;;2.40;2.20;;;;;;;;;;5087699;28;20207;-63
2023/10/18 03:11:11;;;;;;;2.50;2.30;;;;;;;;;;5090481;28;20203;-63
2023/10/18 03:13:38;;;;;;;2.67;2.47;;;;;;;;;;5090651;28;20207;-63
2023/10/18 03:16:15;;;;;;;3.37;2.50;;;;;;;;;;5089700;28;20230;-63
2023/10/18 03:18:43;;;;;;;2.47;2.20;;;;;;;;;;5090559;28;20203;-63
2023/10/18 03:21:20;;;;;;;2.93;2.73;;;;;;;;;;5089095;28;20207;-63
2023/10/18 03:23:50;;;;;;;3.13;2.63;;;;;;;;;;5090391;28;20209;-63
2023/10/18 03:26:21;;;;;;;2.37;2.20;;;;;;;;;;5088722;28;20206;-63
2023/10/18 03:28:50;;;;;;;2.03;2.03;;;;;;;;;;5088079;28;20617;-63
2023/10/18 03:31:28;;;;;;;2.60;2.40;;;;;;;;;;5089001;28;20211;-63
2023/10/18 03:34:02;;;;;;;2.50;2.30;;;;;;;;;;5078134;28;20205;-63
2023/10/18 03:36:32;;;;;;;2.67;2.50;;;;;;;;;;5089669;28;20253;-63
2023/10/18 03:39:10;;;;;;;4.13;2.97;;;;;;;;;;5090128;28;20231;-63
2023/10/18 03:41:40;;;;;;;3.30;2.97;;;;;;;;;;5089771;28;20198;-63
2023/10/18 03:44:07;;;;;;;2.50;2.40;;;;;;;;;;5090161;28;20292;-63
2023/10/18 03:46:47;;;;;;;4.80;2.97;;;;;;;;;;5088946;28;20201;-64
2023/10/18 03:49:22;;;;;;;2.40;2.30;;;;;;;;;;5088505;28;20295;-63
2023/10/18 03:51:49;;;;;;;4.30;2.80;;;;;;;;;;5089957;28;20288;-63
2023/10/18 03:54:19;;;;;;;3.07;2.33;;;;;;;;;;5089672;28;20212;-63
2023/10/18 03:56:51;;;;;;;3.60;3.17;;;;;;;;;;5089937;28;20231;-63
2023/10/18 03:59:21;;;;;;;3.10;2.80;;;;;;;;;;5089976;28;20215;-63
2023/10/18 04:04:48;;;;;;;2.57;2.47;;;;;;;;;;5126496;27;20693;-63
2023/10/18 04:07:17;;;;;;;2.83;2.70;;;;;;;;;;5085518;28;20733;-63
2023/10/18 04:09:47;;;;;;;5.07;2.97;;;;;;;;;;5086022;28;20222;-63
2023/10/18 04:12:19;;;;;;;2.70;2.40;;;;;;;;;;5085870;28;20287;-64
2023/10/18 04:14:52;;;;;;;2.87;2.43;;;;;;;;;;5092998;28;20572;-63
2023/10/18 04:17:20;;;;;;;2.70;2.50;;;;;;;;;;5096870;28;20209;-64
2023/10/18 04:19:48;;;;;;;3.57;3.00;;;;;;;;;;5096516;28;20582;-63
2023/10/18 04:22:17;;;;;;;2.43;2.23;;;;;;;;;;5114810;28;20207;-63
2023/10/18 04:24:45;;;;;;;2.70;2.57;;;;;;;;;;5104339;28;20289;-63
2023/10/18 04:27:12;;;;;;;3.50;3.20;;;;;;;;;;5086083;28;20209;-63
2023/10/18 04:29:39;;;;;;;4.53;3.03;;;;;;;;;;5098426;28;20288;-63
2023/10/18 04:32:17;;;;;;;3.77;2.80;;;;;;;;;;5106596;28;20224;-63
2023/10/18 04:34:45;;;;;;;3.73;2.97;;;;;;;;;;5105479;28;20299;-63
2023/10/18 04:37:14;;;;;;;3.03;2.83;;;;;;;;;;5094411;28;20659;-63
2023/10/18 04:39:41;;;;;;;2.87;2.67;;;;;;;;;;5105214;28;20232;-63
2023/10/18 04:42:08;;;;;;;5.83;2.37;;;;;;;;;;5110142;28;20704;-63
2023/10/18 04:44:36;;;;;;;2.67;2.50;;;;;;;;;;5085575;28;20273;-63
2023/10/18 04:47:04;;;;;;;3.90;3.20;;;;;;;;;;5083674;28;20211;-64
2023/10/18 04:49:36;;;;;;;5.20;3.03;;;;;;;;;;5084607;28;20252;-64
2023/10/18 04:52:06;;;;;;;3.97;2.73;;;;;;;;;;5084359;28;20202;-63
2023/10/18 04:54:37;;;;;;;6.10;3.27;;;;;;;;;;5085880;28;20208;-63
2023/10/18 04:57:10;;;;;;;3.20;2.90;;;;;;;;;;5085279;28;20220;-63
2023/10/18 04:59:44;;;;;;;2.83;2.63;;;;;;;;;;5085782;28;20714;-63
2023/10/18 05:02:17;;;;;;;2.93;2.70;;;;;;;;;;5083450;28;20198;-63
2023/10/18 05:04:43;;;;;;;3.20;2.93;;;;;;;;;;5084641;28;20744;-64
2023/10/18 05:07:16;;;;;;;2.83;2.63;;;;;;;;;;5091515;28;20285;-63
2023/10/18 05:09:45;;;;;;;3.93;2.77;;;;;;;;;;5084188;28;20223;-64
2023/10/18 05:12:28;;;;;;;2.87;2.67;;;;;;;;;;5080522;28;20236;-63
2023/10/18 05:15:09;;;;;;;4.67;3.20;;;;;;;;;;5077275;28;20624;-63
2023/10/18 05:17:42;;;;;;;3.50;3.17;;;;;;;;;;5071119;28;20212;-63
2023/10/18 05:20:21;;;;;;;2.93;2.63;;;;;;;;;;5070294;28;20681;-64
2023/10/18 05:22:50;;;;;;;3.97;3.23;;;;;;;;;;5059692;28;20294;-63
2023/10/18 05:25:23;;;;;;;3.27;2.97;;;;;;;;;;5069051;28;20231;-67
2023/10/18 05:28:00;;;;;;;3.63;3.20;;;;;;;;;;5050488;28;20249;-64
2023/10/18 05:31:25;;;;;;;3.30;2.97;;;;;;;;;;5061524;28;20213;-64
2023/10/18 05:33:47;;;;;;;3.43;3.03;;;;;;;;;;5052812;28;20199;-63
2023/10/18 05:38:55;;;;;;;5.57;4.23;;;;;;;;;;5071949;28;20211;-65
2023/10/18 05:41:28;;;;;;;7.23;4.07;;;;;;;;;;5069996;28;20206;-64
2023/10/18 05:43:58;;;;;;;6.00;3.57;;;;;;;;;;5069274;28;20304;-65
2023/10/18 05:46:27;;;;;;;3.77;2.83;;;;;;;;;;5065950;28;20341;-63
2023/10/18 05:48:57;;;;;;;4.23;3.87;;;;;;;;;;5081002;28;20210;-64
2023/10/18 05:51:27;;;;;;;4.07;3.60;;;;;;;;;;5070021;28;20239;-64
2023/10/18 05:53:57;;;;;;;3.50;3.07;;;;;;;;;;5069809;28;20207;-64
2023/10/18 05:56:29;;;;;;;5.93;3.30;;;;;;;;;;5069363;28;20230;-64
2023/10/18 06:01:37;;;;;;;4.03;3.27;;;;;;;;;;5068849;28;20200;-64
2023/10/18 06:04:05;;;;;;;5.70;3.90;;;;;;;;;;5069010;28;20238;-64
2023/10/18 06:06:32;;;;;;;5.70;4.23;;;;;;;;;;5069339;28;20210;-64
2023/10/18 06:09:00;;;;;;;4.07;3.67;;;;;;;;;;5069732;28;20211;-64
2023/10/18 06:11:29;;;;;;;5.00;3.57;;;;;;;;;;5069212;28;20302;-61
2023/10/18 06:13:58;;;;;;;4.53;3.53;;;;;;;;;;5069152;28;20203;-62
2023/10/18 06:16:33;;;;;;;4.43;4.00;;;;;;;;;;5068715;28;20285;-62
2023/10/18 06:19:00;;;;;;;4.13;3.80;;;;;;;;;;5069007;28;20207;-64
2023/10/18 06:21:28;;;;;;;5.27;3.57;;;;;;;;;;5068425;28;20238;-64
2023/10/18 06:23:55;;;;;;;3.87;3.53;;;;;;;;;;5068220;28;20727;-64
2023/10/18 06:26:28;;;;;;;5.17;3.97;;;;;;;;;;5067787;28;20740;-64
2023/10/18 06:29:01;;;;;;;7.53;4.70;;;;;;;;;;5069198;28;20268;-64
2023/10/18 06:31:29;;;;;;;8.43;4.97;;;;;;;;;;5068971;28;20230;-63
2023/10/18 06:33:59;;;;;;;5.80;4.20;;;;;;;;;;5069133;28;20230;-63
2023/10/18 06:36:26;;;;;;;4.40;4.07;;;;;;;;;;5068693;28;20565;-63
2023/10/18 06:38:53;;;;;;;6.03;4.17;;;;;;;;;;5068745;28;20218;-64
2023/10/18 06:41:21;;;;;;;4.83;4.33;;;;;;;;;;5068928;28;20197;-63
2023/10/18 06:43:49;;;;;;;4.40;4.00;;;;;;;;;;5068594;28;20240;-64
2023/10/18 06:46:22;;;;;;;6.97;4.23;;;;;;;;;;5068545;28;20211;-64
2023/10/18 06:48:50;;;;;;;4.23;3.63;;;;;;;;;;5068262;28;20200;-64
2023/10/18 06:51:22;;;;;;;5.83;3.97;;;;;;;;;;5067969;28;20678;-64
2023/10/18 06:53:53;;;;;;;4.10;3.63;;;;;;;;;;5068769;28;20577;-64
2023/10/18 06:56:23;;;;;;;4.03;3.50;;;;;;;;;;5068821;28;20206;-64
2023/10/18 06:58:50;;;;;;;6.77;3.60;;;;;;;;;;5068564;28;20228;-64
2023/10/18 07:01:26;;;;;;;10.97;4.63;;;;;;;;;;5068092;28;20206;-64
2023/10/18 07:03:53;;;;;;;7.93;4.53;;;;;;;;;;5067943;28;20252;-64
2023/10/18 07:06:24;;;;;;;5.73;4.23;;;;;;;;;;5068178;28;20262;-64
2023/10/18 07:08:51;;;;;;;13.57;4.93;;;;;;;;;;5068391;28;20548;-63
2023/10/18 07:11:18;;;;;;;5.93;4.30;;;;;;;;;;5068098;28;20632;-63
2023/10/18 07:13:47;;;;;;;7.20;3.67;;;;;;;;;;5067290;28;20583;-64
2023/10/18 07:16:15;;;;;;;4.97;4.43;;;;;;;;;;5068153;28;20208;-64
2023/10/18 07:18:45;;;;;;;8.13;5.03;;;;;;;;;;5068264;28;20222;-63
2023/10/18 07:21:18;;;;;;;5.80;4.50;;;;;;;;;;5067888;28;20233;-63
2023/10/18 07:23:53;;;;;;;2.67;2.43;;;;;;;;;;5068076;28;20231;-63
2023/10/18 07:26:21;;;;;;;6.67;4.93;;;;;;;;;;5069575;28;20640;-61
2023/10/18 07:28:49;;;;;;;4.77;4.37;;;;;;;;;;5087975;28;20210;-62
2023/10/18 07:31:17;;;;;;;5.60;4.23;;;;;;;;;;5086459;28;20775;-63
2023/10/18 07:33:50;;;;;;;10.17;2.97;;;;;;;;;;5088260;28;20932;-63
2023/10/18 07:36:18;;;;;;;5.23;3.43;;;;;;;;;;5087876;28;20266;-62
2023/10/18 07:38:48;;;;;;;4.73;3.23;;;;;;;;;;5087659;28;20213;-62
2023/10/18 07:41:18;;;;;;;3.87;3.43;;;;;;;;;;5086133;28;20213;-63
2023/10/18 07:43:45;;;;;;;4.70;4.27;;;;;;;;;;5066394;28;20314;-63
2023/10/18 07:46:17;;;;;;;6.97;5.20;;;;;;;;;;5067258;28;20198;-62
2023/10/18 07:48:52;;;;;;;3.83;3.53;;;;;;;;;;5068047;28;20211;-64
2023/10/18 07:51:26;;;;;;;4.87;4.47;;;;;;;;;;5066713;28;20303;-63
2023/10/18 07:53:53;;;;;;;6.53;4.67;;;;;;;;;;5067835;28;20313;-63
2023/10/18 07:56:26;;;;;;;6.90;5.80;;;;;;;;;;5067651;28;20257;-64
2023/10/18 07:58:55;;;;;;;7.87;5.60;;;;;;;;;;5067618;28;20637;-64
2023/10/18 08:04:05;;;;;;;4.43;4.03;;;;;;;;;;5065819;28;20296;-64
2023/10/18 08:06:33;;;;;;;6.30;4.80;;;;;;;;;;5067649;28;20207;-64
2023/10/18 08:09:04;;;;;;;5.07;4.57;;;;;;;;;;5067965;28;20207;-64
2023/10/18 08:11:34;;;;;;;17.27;5.00;;;;;;;;;;5067746;28;20227;-64
2023/10/18 08:14:01;;;;;;;6.83;5.13;;;;;;;;;;5067536;28;20640;-65
2023/10/18 08:16:42;;;;;;;4.93;4.40;;;;;;;;;;5066469;28;20213;-64
2023/10/18 08:19:11;;;;;;;5.17;4.13;;;;;;;;;;5063445;28;20224;-63
2023/10/18 08:21:38;;;;;;;7.93;5.50;;;;;;;;;;5066096;28;20306;-67
2023/10/18 08:24:19;;;;;;;6.73;5.20;;;;;;;;;;5066787;28;20222;-64
2023/10/18 08:26:51;;;;;;;5.00;4.47;;;;;;;;;;5066791;28;20596;-63
2023/10/18 08:29:18;;;;;;;4.00;3.10;;;;;;;;;;5066844;28;20214;-64
2023/10/18 08:31:55;;;;;;;5.13;4.63;;;;;;;;;;5066681;28;20211;-63
2023/10/18 08:34:24;;;;;;;3.93;3.57;;;;;;;;;;5066621;28;20206;-64
2023/10/18 08:37:01;;;;;;;6.93;4.07;;;;;;;;;;5066389;28;20211;-63
2023/10/18 08:39:28;;;;;;;6.27;4.10;;;;;;;;;;5066553;28;20210;-66
2023/10/18 08:41:57;;;;;;;6.80;4.70;;;;;;;;;;5065714;28;20210;-63
2023/10/18 08:44:26;;;;;;;8.60;5.70;;;;;;;;;;5046265;28;20240;-67
2023/10/18 08:46:54;;;;;;;4.73;4.23;;;;;;;;;;5046538;28;20207;-62
2023/10/18 08:49:23;;;;;;;4.53;4.10;;;;;;;;;;5066344;28;20741;-63
2023/10/18 08:52:04;;;;;;;6.10;4.93;;;;;;;;;;5070515;28;20210;-64
2023/10/18 08:54:32;;;;;;;5.53;4.90;;;;;;;;;;5069397;28;20207;-64
2023/10/18 08:57:06;;;;;;;5.13;4.30;;;;;;;;;;5069668;28;20250;-64
2023/10/18 08:59:42;;;;;;;6.10;4.80;;;;;;;;;;5069769;28;20311;-65
2023/10/18 09:02:12;;;;;;;4.90;3.50;;;;;;;;;;5069702;28;20578;-64
2023/10/18 09:04:44;;;;;;;5.33;4.57;;;;;;;;;;5068449;28;20777;-64
2023/10/18 09:07:42;;;;;;;8.37;4.83;;;;;;;;;;5069053;28;20679;-64
2023/10/18 09:10:13;;;;;;;5.00;3.73;;;;;;;;;;5069563;28;20206;-64
2023/10/18 09:15:29;;;;;;;4.40;4.00;;;;;;;;;;5068506;28;20677;-64
2023/10/18 09:17:56;;;;;;;4.87;3.93;;;;;;;;;;5069559;28;20210;-64
2023/10/18 09:20:25;;;;;;;4.63;4.23;;;;;;;;;;5069493;28;20211;-63
2023/10/18 09:22:54;;;;;;;4.97;4.53;;;;;;;;;;5069705;28;20239;-64
2023/10/18 09:25:24;;;;;;;5.20;4.27;;;;;;;;;;5068918;28;20233;-64
2023/10/18 09:27:51;;;;;;;4.93;4.50;;;;;;;;;;5069451;28;20301;-64
2023/10/18 09:30:19;;;;;;;6.30;4.87;;;;;;;;;;5069047;28;20301;-65
2023/10/18 09:32:46;;;;;;;5.20;4.70;;;;;;;;;;5069469;28;20735;-67
2023/10/18 09:35:13;;;;;;;5.03;4.53;;;;;;;;;;5069408;28;20230;-70
2023/10/18 09:37:40;;;;;;;7.57;4.83;;;;;;;;;;5069992;28;20211;-64
2023/10/18 09:40:12;;;;;;;4.23;3.87;;;;;;;;;;5069234;28;20221;-66
2023/10/18 09:42:39;;;;;;;3.53;3.23;;;;;;;;;;5068934;28;20751;-64
2023/10/18 09:45:08;;;;;;;7.57;4.53;;;;;;;;;;5068516;28;20241;-65
2023/10/18 10:14:35;;;;;;;7.13;4.27;;;;;;;;;;5080303;27;20928;-61
2023/10/18 10:17:05;;;;;;;4.63;4.27;;;;;;;;;;5080316;28;20263;-61
2023/10/18 10:19:34;;;;;;;4.00;3.27;;;;;;;;;;5080138;28;20260;-62
2023/10/18 10:22:05;;;;;;;6.30;4.17;;;;;;;;;;5080096;28;20241;-62
2023/10/18 10:24:35;;;;;;;4.30;3.83;;;;;;;;;;5080076;28;20309;-62
2023/10/18 10:27:27;;;;;;;4.00;3.70;;;;;;;;;;5079715;28;20213;-62
2023/10/18 10:29:58;;;;;;;5.80;3.87;;;;;;;;;;5062098;28;20226;-61
2023/10/18 10:32:26;;;;;;;3.40;3.10;;;;;;;;;;5060056;28;20361;-62
2023/10/18 10:35:11;;;;;;;4.90;4.60;;;;;;;;;;5059780;28;20297;-62
2023/10/18 10:37:47;;;;;;;3.77;3.47;;;;;;;;;;5059739;28;20215;-62
2023/10/18 10:40:35;;;;;;;4.60;3.33;;;;;;;;;;5068365;28;20670;-63
2023/10/18 10:43:03;;;;;;;3.17;2.97;;;;;;;;;;5078316;28;20956;-62
2023/10/18 10:45:35;;;;;;;3.40;3.10;;;;;;;;;;5079970;28;20469;-63
2023/10/18 10:48:31;;;;;;;4.53;3.37;;;;;;;;;;5080076;28;20217;-64
2023/10/18 10:51:06;;;;;;;4.57;3.30;;;;;;;;;;5079784;28;20217;-64
2023/10/18 10:53:33;;;;;;;3.60;3.20;;;;;;;;;;5080002;28;20221;-63
2023/10/18 10:56:06;;;;;;;2.67;2.53;;;;;;;;;;5079348;28;20210;-62
2023/10/18 10:58:38;;;;;;;3.47;3.17;;;;;;;;;;5077121;28;20211;-62
2023/10/18 11:01:07;;;;;;;3.37;3.13;;;;;;;;;;5079670;28;20214;-63
2023/10/18 11:03:52;;;;;;;2.40;2.30;;;;;;;;;;5079991;28;20238;-62
2023/10/18 11:06:23;;;;;;;2.37;2.27;;;;;;;;;;5053488;28;20214;-62
2023/10/18 11:08:50;;;;;;;2.90;2.60;;;;;;;;;;5040322;28;20297;-63
2023/10/18 11:11:18;;;;;;;2.20;2.10;;;;;;;;;;5057004;28;20215;-63
2023/10/18 11:13:46;;;;;;;2.80;2.60;;;;;;;;;;5055956;28;20235;-67
2023/10/18 11:16:16;;;;;;;2.70;2.50;;;;;;;;;;5046626;28;20766;-63
2023/10/18 11:18:48;;;;;;;2.83;2.73;;;;;;;;;;5044657;28;20738;-64
2023/10/18 11:21:21;;;;;;;4.03;2.80;;;;;;;;;;5045950;28;20210;-63
2023/10/18 11:23:51;;;;;;;2.20;2.03;;;;;;;;;;5045731;28;20224;-64
2023/10/18 11:26:24;;;;;;;3.20;2.90;;;;;;;;;;5037795;28;20208;-63
2023/10/18 11:28:55;;;;;;;2.17;2.03;;;;;;;;;;5042339;28;20239;-62
2023/10/18 11:31:26;;;;;;;2.97;2.70;;;;;;;;;;5042147;28;20200;-62
2023/10/18 11:33:59;;;;;;;2.90;2.70;;;;;;;;;;5045779;28;20211;-64
2023/10/18 11:36:28;;;;;;;2.70;2.53;;;;;;;;;;5043645;28;20222;-63
2023/10/18 11:41:48;;;;;;;4.97;3.00;;;;;;;;;;5037984;28;20211;-65
2023/10/18 11:44:26;;;;;;;2.47;2.30;;;;;;;;;;5046133;28;20235;-63
2023/10/18 11:46:57;;;;;;;3.00;2.60;;;;;;;;;;5047063;28;20668;-61
2023/10/18 11:49:24;;;;;;;2.93;2.73;;;;;;;;;;5046927;28;20219;-61
2023/10/18 11:51:53;;;;;;;2.63;2.53;;;;;;;;;;5047955;28;20199;-61
2023/10/18 11:54:31;;;;;;;2.73;2.53;;;;;;;;;;5042936;28;20196;-69
2023/10/18 11:56:58;;;;;;;2.60;2.40;;;;;;;;;;5044712;28;20214;-63
2023/10/18 11:59:26;;;;;;;2.93;2.77;;;;;;;;;;5045551;28;20215;-61
2023/10/18 12:01:58;;;;;;;2.73;2.60;;;;;;;;;;5044919;28;20306;-62
2023/10/18 12:04:29;;;;;;;252.15;77.03;;;;;;;;;;5045533;28;20228;-63
2023/10/18 12:06:57;;;;;;;133.40;43.40;;;;;;;;;;5045460;28;20204;-63
2023/10/18 12:09:30;;;;;;;4.77;2.90;;;;;;;;;;5045073;28;20218;-64
2023/10/18 12:11:57;;;;;;;8.38;2.95;;;;;;;;;;5043833;28;20261;-61
2023/10/18 12:14:24;;;;;;;2.03;1.92;;;;;;;;;;5044563;28;20331;-62
2023/10/18 12:16:52;;;;;;;2.63;2.43;;;;;;;;;;5044816;28;20208;-61
2023/10/18 12:19:21;;;;;;;2.15;1.95;;;;;;;;;;5035568;28;20234;-62
2023/10/18 12:21:54;;;;;;;2.97;2.43;;;;;;;;;;5042831;28;20216;-62
2023/10/18 12:24:21;;;;;;;3.13;2.63;;;;;;;;;;5044599;28;20658;-62
2023/10/18 12:26:53;;;;;;;3.70;2.70;;;;;;;;;;5042968;28;20211;-61
2023/10/18 12:29:26;;;;;;;2.45;2.20;;;;;;;;;;5043935;28;20317;-63
2023/10/18 12:31:54;;;;;;;2.05;1.80;;;;;;;;;;5042412;28;20207;-62
2023/10/18 12:34:28;;;;;;;7.97;5.00;;;;;;;;;;5044046;28;20245;-61
2023/10/18 12:36:57;;;;;;;2.53;2.33;;;;;;;;;;5043906;28;20206;-60
2023/10/18 12:39:25;;;;;;;2.30;2.10;;;;;;;;;;5043758;28;20641;-60
2023/10/18 13:15:33;;;;;;;2.70;2.50;;;;;;;;;;5099585;27;20604;-62
2023/10/18 13:18:00;;;;;;;2.05;1.98;;;;;;;;;;5101145;28;20248;-62
2023/10/18 13:20:34;;;;;;;4.63;1.98;;;;;;;;;;5101581;28;20202;-62
2023/10/18 13:23:01;;;;;;;2.63;2.42;;;;;;;;;;5099571;28;20253;-62
2023/10/18 13:25:37;;;;;;;3.53;2.10;;;;;;;;;;5099903;28;20726;-63
2023/10/18 13:28:05;;;;;;;2.13;2.03;;;;;;;;;;5087792;28;20790;-63
2023/10/18 13:30:39;;;;;;;2.88;2.67;;;;;;;;;;5099486;28;20653;-60
2023/10/18 13:33:11;;;;;;;15.43;11.33;;;;;;;;;;5098520;28;20292;-64
2023/10/18 13:35:39;;;;;;;4.32;2.55;;;;;;;;;;5090017;28;20710;-62
2023/10/18 13:38:06;;;;;;;2.42;2.30;;;;;;;;;;5088166;28;20802;-64
2023/10/18 13:40:36;;;;;;;2.35;2.15;;;;;;;;;;5099699;28;20775;-63
2023/10/18 13:43:03;;;;;;;2.00;1.90;;;;;;;;;;5097524;28;20237;-66
2023/10/18 13:45:33;;;;;;;1.80;1.70;;;;;;;;;;5099802;28;20210;-63
2023/10/18 13:48:02;;;;;;;3.70;2.53;;;;;;;;;;5099807;28;20213;-63
2023/10/18 13:50:31;;;;;;;2.47;2.03;;;;;;;;;;5099714;28;20334;-63
2023/10/18 13:52:58;;;;;;;2.60;2.33;;;;;;;;;;5095209;28;20206;-63
2023/10/18 13:55:25;;;;;;;1.83;1.83;;;;;;;;;;5098145;28;20205;-63
2023/10/18 13:57:52;;;;;;;6.77;2.10;;;;;;;;;;5092303;28;20678;-64
2023/10/18 14:00:21;;;;;;;2.00;2.00;;;;;;;;;;5081668;28;20789;-63
2023/10/18 14:02:53;;;;;;;2.13;2.00;;;;;;;;;;5094052;28;20661;-63
2023/10/18 14:05:22;;;;;;;3.60;1.77;;;;;;;;;;5095506;28;20217;-63
2023/10/18 14:07:49;;;;;;;3.15;2.33;;;;;;;;;;5093998;28;20205;-61
2023/10/18 14:10:28;;;;;;;2.38;2.13;;;;;;;;;;5093165;28;20202;-61
2023/10/18 14:12:55;;;;;;;2.30;2.15;;;;;;;;;;5095309;28;20213;-61
2023/10/18 14:15:25;;;;;;;4.15;2.00;;;;;;;;;;5078573;28;20851;-61
2023/10/18 14:17:52;;;;;;;3.45;2.15;;;;;;;;;;5086497;28;20259;-64
2023/10/18 14:20:25;;;;;;;2.00;1.90;;;;;;;;;;5086421;28;20198;-63
2023/10/18 14:22:55;;;;;;;2.13;2.03;;;;;;;;;;5086083;28;20263;-63
2023/10/18 14:25:22;;;;;;;2.28;2.08;;;;;;;;;;5086894;28;20760;-63
2023/10/18 14:27:50;;;;;;;2.00;1.90;;;;;;;;;;5082426;28;20563;-65
2023/10/18 14:30:17;;;;;;;2.07;1.97;;;;;;;;;;5086088;28;20209;-65
2023/10/18 14:32:44;;;;;;;3.13;2.15;;;;;;;;;;5085582;28;20199;-63
2023/10/18 14:35:12;;;;;;;2.00;1.90;;;;;;;;;;5087045;28;20199;-63
2023/10/18 14:37:40;;;;;;;2.30;2.10;;;;;;;;;;5066271;28;20203;-63
2023/10/18 14:40:11;;;;;;;4.05;1.80;;;;;;;;;;5081037;28;20234;-61
2023/10/18 14:42:38;;;;;;;2.20;2.10;;;;;;;;;;5079128;28;20203;-63
2023/10/18 14:45:07;;;;;;;3.28;1.85;;;;;;;;;;5068634;28;20235;-63
2023/10/18 14:47:38;;;;;;;2.15;2.05;;;;;;;;;;5068835;28;20211;-61
2023/10/18 14:50:06;;;;;;;2.30;2.10;;;;;;;;;;5065110;28;20451;-64
2023/10/18 14:52:33;;;;;;;2.03;1.92;;;;;;;;;;5078186;28;20207;-61
2023/10/18 14:55:00;;;;;;;2.50;2.30;;;;;;;;;;5079275;28;20207;-64
2023/10/18 14:57:29;;;;;;;1.90;1.80;;;;;;;;;;5073907;28;20202;-63
2023/10/18 14:59:56;;;;;;;1.80;1.70;;;;;;;;;;5073994;28;20214;-63
2023/10/18 15:02:23;;;;;;;2.78;2.38;;;;;;;;;;5085341;28;20213;-64
2023/10/18 15:04:52;;;;;;;2.03;1.92;;;;;;;;;;5085216;28;20226;-62
2023/10/18 15:07:19;;;;;;;1.77;1.77;;;;;;;;;;5085246;28;20207;-62
2023/10/18 15:09:46;;;;;;;4.93;2.00;;;;;;;;;;5085743;28;20210;-62
2023/10/18 15:12:13;;;;;;;1.80;1.70;;;;;;;;;;5066107;28;20218;-62
2023/10/18 15:14:41;;;;;;;2.77;1.90;;;;;;;;;;5085695;28;20242;-62
2023/10/18 15:17:08;;;;;;;2.23;2.13;;;;;;;;;;5072381;28;20210;-62
2023/10/18 15:19:35;;;;;;;2.83;2.63;;;;;;;;;;5081635;28;20214;-62
2023/10/18 15:22:03;;;;;;;2.77;2.57;;;;;;;;;;5085949;28;20215;-61
2023/10/18 15:24:36;;;;;;;3.88;3.50;;;;;;;;;;5085665;28;20632;-62
2023/10/18 15:27:03;;;;;;;2.50;2.40;;;;;;;;;;5084479;28;20214;-62
2023/10/18 15:29:31;;;;;;;3.75;2.80;;;;;;;;;;5085120;28;20672;-62
2023/10/18 15:31:59;;;;;;;3.25;2.92;;;;;;;;;;5083511;28;20237;-61
2023/10/18 15:34:29;;;;;;;3.17;2.97;;;;;;;;;;5085285;28;20198;-61
2023/10/18 15:36:57;;;;;;;3.60;2.63;;;;;;;;;;5084905;28;20582;-61
2023/10/18 15:39:24;;;;;;;3.50;2.87;;;;;;;;;;5084639;28;20280;-61
2023/10/18 15:41:51;;;;;;;2.97;2.60;;;;;;;;;;5085140;28;20210;-61
2023/10/18 15:44:18;;;;;;;2.73;2.27;;;;;;;;;;5084909;28;20607;-61
2023/10/18 15:46:47;;;;;;;1.88;1.77;;;;;;;;;;5084300;28;20209;-61
2023/10/18 15:49:15;;;;;;;3.07;1.87;;;;;;;;;;5085192;28;20210;-61
2023/10/18 15:51:42;;;;;;;2.90;2.70;;;;;;;;;;5085187;28;20268;-61
2023/10/18 15:54:11;;;;;;;2.47;2.03;;;;;;;;;;5083238;28;20202;-62
2023/10/18 15:56:38;;;;;;;5.22;2.08;;;;;;;;;;5073239;28;20211;-62
2023/10/18 15:59:08;;;;;;;2.07;2.07;;;;;;;;;;5064806;28;20214;-61
2023/10/18 16:01:35;;;;;;;2.00;1.90;;;;;;;;;;5064131;28;20261;-61
2023/10/18 16:04:02;;;;;;;1.60;1.60;;;;;;;;;;5080148;28;20303;-61
2023/10/18 16:06:31;;;;;;;2.37;1.67;;;;;;;;;;5084740;28;20232;-63
2023/10/18 16:08:58;;;;;;;3.97;2.27;;;;;;;;;;5084473;28;20224;-62
2023/10/18 16:11:25;;;;;;;2.70;1.80;;;;;;;;;;5083720;28;20205;-63
2023/10/18 16:13:54;;;;;;;3.83;2.23;;;;;;;;;;5083351;28;20233;-62
2023/10/18 16:16:24;;;;;;;2.03;1.80;;;;;;;;;;5084719;28;20248;-62
2023/10/18 16:18:55;;;;;;;2.00;1.80;;;;;;;;;;5084425;28;20586;-62